deformed-offering

Nearby METAR Reports

 

KNUQ - Moffett Nas/Mtn, California, USA
Distance from station: N 9mi, 14km
Updated: Sun, 26-Mar-2017 3:56am PDT
Clear
Clear
 Wind from calm
Wind: Calm
Temperature: 50°F , 10°C
Dew Point: 45°F , 7°C
Humidity: 82%
Barometer: 30.11 inHg , 1019.6 hPa
Clouds: Clear
Visibility: 10 miles , 16 km
2017/03/26 10:56 KNUQ 261056Z 00000KT 10SM CLR 10/07 A3011 RMK AO2 SLP197 T01000072
KSJC - San Jose, California, USA
Distance from station: NE 9mi, 14km
Updated: Sun, 26-Mar-2017 3:53am PDT
Clear
Clear
 Wind from SE
Wind: SE 3 mph , 6 km/h
Temperature: 50°F , 10°C
Dew Point: 45°F , 7°C
Humidity: 82%
Barometer: 30.10 inHg , 1019.3 hPa
Clouds: Clear
Visibility: 10 miles , 16 km
2017/03/26 10:53 KSJC 261053Z AUTO 13003KT 10SM CLR 10/07 A3010 RMK AO2 SLP192 T01000067 $
 
KRHV - San Jose/Reid, California, USA
Distance from station: ENE 12mi, 19km
Updated: Sat, 25-Mar-2017 9:53pm PDT
NOT Current
Clear
Clear
 Wind from NNW
Wind: NNW 6 mph , 9 km/h
Temperature: 54°F , 12°C
Dew Point: 48°F , 9°C
Humidity: 82%
Barometer: 30.17 inHg , 1021.7 hPa
Clouds: Clear
Visibility: 10 miles , 16 km
2017/03/26 04:53 KRHV 260453Z 34005KT 10SM SKC 12/09 A3017
KPAO - Palo Alto, California, USA
Distance from station: NNW 14mi, 23km
Updated: Sat, 25-Mar-2017 8:47pm PDT
NOT Current
Few Clouds
Few Clouds
 Wind from WNW
Wind: WNW 12 mph , 19 km/h
Temperature: 55°F , 13°C
Dew Point: 46°F , 8°C
Humidity: 72%
Barometer: 30.14 inHg , 1020.7 hPa
Clouds: Few Clouds
Visibility: 10 miles , 16 km
Cloud details: Few Clouds 10000 ft
2017/03/26 03:47 KPAO 260347Z 30010KT 10SM FEW100 13/08 A3014 RMK LAST
 
KSQL - San Carlos Airpo, California, USA
Distance from station: NW 21mi, 34km
Updated: Sun, 26-Mar-2017 3:55am PDT
Clear
Clear
 Wind from SSW
Wind: SSW 3 mph , 6 km/h
Temperature: 50°F , 10°C
Dew Point: 46°F , 8°C
Humidity: 88%
Barometer: 30.10 inHg , 1019.3 hPa
Clouds: Clear
Visibility: 10 miles , 16 km
2017/03/26 10:55 KSQL 261055Z AUTO 20003KT 10SM CLR 10/08 A3010 RMK AO2
KE16 - San Martin, California, USA
Distance from station: ESE 27mi, 43km
Updated: Sun, 26-Mar-2017 3:55am PDT
Overcast
Overcast
 Wind from calm
Wind: Calm
Temperature: 48°F , 9°C
Dew Point: 46°F , 8°C
Humidity: 94%
Barometer: 30.12 inHg , 1020 hPa
Clouds: Overcast
Visibility: 10 miles , 16 km
Cloud details: Overcast 2300 ft
2017/03/26 10:55 KE16 261055Z AUTO 00000KT 10SM OVC023 09/08 A3012 RMK AO2
 
KWVI - Watsonville, California, USA
Distance from station: SSE 27mi, 44km
Updated: Sun, 26-Mar-2017 3:53am PDT
Partly Cloudy
Partly Cloudy
 Wind from NE
Wind: NE 5 mph , 7 km/h
Temperature: 52°F , 11°C
Dew Point: 48°F , 9°C
Humidity: 88%
Barometer: 30.11 inHg , 1019.6 hPa
Clouds: Partly Cloudy
Visibility: 10 miles , 16 km
Cloud details: Partly Cloudy 2000 ft
2017/03/26 10:53 KWVI 261053Z AUTO 05004KT 10SM SCT020 11/09 A3011 RMK AO2 SLP195 T01060094
KHWD - Hayward, California, USA
Distance from station: N 28mi, 44km
Updated: Sun, 26-Mar-2017 3:54am PDT
Few Clouds
Few Clouds
 Wind from S
Wind: S 6 mph , 9 km/h
Temperature: 54°F , 12°C
Dew Point: 45°F , 7°C
Humidity: 72%
Barometer: 30.08 inHg , 1018.6 hPa
Clouds: Few Clouds
Visibility: 10 miles , 16 km
Cloud details: Few Clouds 2200 ft
2017/03/26 10:54 KHWD 261054Z 19005KT 10SM FEW022 12/07 A3008 RMK AO2 SLP196 T01220067
 
KSFO - San Francisco, California, USA
Distance from station: NW 30mi, 49km
Updated: Sun, 26-Mar-2017 3:56am PDT
Few Clouds
Few Clouds
 Wind from S
Wind: S 6 mph , 9 km/h
Temperature: 52°F , 11°C
Dew Point: 46°F , 8°C
Humidity: 82%
Barometer: 30.09 inHg , 1019 hPa
Clouds: Few Clouds
Visibility: 10 miles , 16 km
Cloud details: Few Clouds 2000 ft
2017/03/26 10:56 KSFO 261056Z 18005KT 10SM FEW020 11/08 A3009 RMK AO2 SLP188 T01110078 $
KHAF - Half Moon Bay, California, USA
Distance from station: WNW 31mi, 50km
Updated: Sun, 26-Mar-2017 3:55am PDT
Overcast
Overcast
 Wind from calm
Wind: Calm
Temperature: 48°F , 9°C
Dew Point: 46°F , 8°C
Humidity: 94%
Barometer: 30.09 inHg , 1019 hPa
Clouds: Overcast
Visibility: 10 miles , 16 km
Cloud details: Partly Cloudy 300 ft
Mostly Cloudy 2100 ft
Overcast 11000 ft
2017/03/26 10:55 KHAF 261055Z AUTO 00000KT 10SM SCT003 BKN021 OVC110 09/08 A3009 RMK AO2
 
KOAK - Oakland, California, USA
Distance from station: NNW 31mi, 50km
Updated: Sun, 26-Mar-2017 3:53am PDT
Mostly Cloudy
Mostly Cloudy
 Wind from WSW
Wind: WSW 7 mph , 11 km/h
Temperature: 54°F , 12°C
Dew Point: 48°F , 9°C
Humidity: 82%
Barometer: 30.09 inHg , 1019 hPa
Clouds: Mostly Cloudy
Visibility: 10 miles , 16 km
Cloud details: Partly Cloudy 1800 ft
Mostly Cloudy 20000 ft
2017/03/26 10:53 KOAK 261053Z 24006KT 10SM SCT018 BKN200 12/09 A3009 RMK AO2 SLP190 T01220089
KLVK - Livermore, California, USA
Distance from station: NNE 31mi, 51km
Updated: Sun, 26-Mar-2017 3:53am PDT
Clear
Clear
 Wind from S
Wind: S 6 mph , 9 km/h
Temperature: 50°F , 10°C
Wind Chill: 48°F , 9°C
Dew Point: 45°F , 7°C
Humidity: 82%
Barometer: 30.08 inHg , 1018.6 hPa
Clouds: Clear
Visibility: 10 miles , 16 km
2017/03/26 10:53 KLVK 261053Z AUTO 19005KT 10SM CLR 10/07 A3008 RMK AO2 SLP186 T01000072 TSNO
 
KCVH - Hollister Muni, California, USA
Distance from station: SE 42mi, 68km
Updated: Sun, 26-Mar-2017 3:50am PDT
Overcast
Overcast
 Wind from calm
Wind: Calm
Temperature: 50°F , 10°C
Dew Point: 46°F , 8°C
Humidity: 88%
Barometer: 30.13 inHg , 1020.3 hPa
Clouds: Overcast
Visibility: 10 miles , 16 km
Cloud details: Overcast 1900 ft
2017/03/26 10:50 KCVH 261050Z AUTO 00000KT 10SM OVC019 10/08 A3013 RMK AO1
KSNS - Salinas, California, USA
Distance from station: SSE 48mi, 77km
Updated: Sun, 26-Mar-2017 3:53am PDT
Clear
Clear
 Wind from N
Wind: N 3 mph , 6 km/h
Temperature: 50°F , 10°C
Dew Point: 46°F , 8°C
Humidity: 88%
Barometer: 30.10 inHg , 1019.3 hPa
Clouds: Clear
Visibility: 10 miles , 16 km
2017/03/26 10:53 KSNS 261053Z AUTO 01003KT 10SM CLR 10/08 A3010 RMK AO2 SLP203 T01000078
 
KMRY - Monterey, California, USA
Distance from station: SSE 49mi, 78km
Updated: Sun, 26-Mar-2017 3:54am PDT
Clear
Clear
 Wind from SE
Wind: SE 7 mph , 11 km/h
Temperature: 50°F , 10°C
Wind Chill: 47°F , 8°C
Dew Point: 46°F , 8°C
Humidity: 88%
Barometer: 30.11 inHg , 1019.6 hPa
Clouds: Clear
Visibility: 10 miles , 16 km
2017/03/26 10:54 KMRY 261054Z AUTO 14006KT 10SM CLR 10/08 A3011 RMK AO2 SLP207 T01000078
KCCR - Concord, California, USA
Distance from station: N 50mi, 81km
Updated: Sun, 26-Mar-2017 3:53am PDT
Clear
Clear
 Wind from S
Wind: S 7 mph , 11 km/h
Temperature: 52°F , 11°C
Dew Point: 46°F , 8°C
Humidity: 82%
Barometer: 30.08 inHg , 1018.6 hPa
Clouds: Clear
Visibility: 10 miles , 16 km
2017/03/26 10:53 KCCR 261053Z AUTO 19006KT 10SM CLR 11/08 A3008 RMK AO2 SLP172 T01060083
deformed-offering